Omaha, NE (68106)

10:10 PM CDT on August 27, 2014 (GMT -0500)
Midtown (42nd and Center) | Change Station
CLOSE
Current Station
Personal Weather Station
Location: Omaha, NE
Elevation: 1220 ft
Nearby Weather Stations

Elev 1220 ft 41.24 °N, 95.97 °W | Updated 7 seconds ago

Overcast
Overcast
70.4 °F
Feels Like 70.4 °F
N
5.0
Wind Variable Wind from NE
Gusts 5.0 mph

Today
High -- | Low -- °F
--% Chance of Precip.
Yesterday
High -- | Low -- °F
Precip. -- in
6:45 AM 8:04 PM
Waxing Crescent, 6% visible
Pressure 30.06 in
Visibility 10.0 miles
Clouds Overcast 1200 ft
Dew Point 69 °F
Humidity 95%
Rainfall 1.32 in
Snow Depth Not available.
UV 0.0 out of 12
Pollen 2.00 out of 12
Ozone Good
PM2.5 Good
Flu Activity Not available.
METAR KMLE 280255Z AUTO 10003KT 10SM OVC012 23/21 A3006 RMK AO2 T02300213

More Conditions Fewer Conditions

Pressure 30.06 in
Visibility 10.0 miles
Clouds Overcast 1200 ft
Dew Point 69 °F
Humidity 95%
Rainfall 1.32 in
Snow Depth Not available.
UV 0.0 out of 12
Pollen 2.00 out of 12
Ozone Good
PM2.5 Good
Flu Activity Not available.
METAR KMLE 280255Z AUTO 10003KT 10SM OVC012 23/21 A3006 RMK AO2 T02300213

More Conditions Fewer Conditions

10-Day Weather Forecast

Almanac

Astronomy

Aug. 27, 2014 Rise Set
Actual Time 6:45 AM CDT 8:04 PM CDT
Civil Twilight 6:16 AM CDT 8:33 PM CDT
Nautical Twilight 5:42 AM CDT 9:07 PM CDT
Astronomical Twilight 5:05 AM CDT 9:43 PM CDT
Moon 8:44 AM CDT (8/27) 8:55 PM CDT (8/27)
Length of Visible Light 14h 16m
Length of Day
13h 19m
Tomorrow will be 2m 36s shorter.
Waxing Crescent, 6% of the Moon is Illuminated
Today
Waxing Crescent
Sep 2
First Quarter
Sep 8
Full
Sep 15
Last Quarter
Sep 24
New

Today's Extremes

State Highs State Lows

Community

WunderPhotos

Upload Photos

1,747,892 photos uploaded!

Nearby

Air Quality

  Air Quality AQ Index Pollutant
Yesterday Good
OZONE
Yesterday Good
PM2.5
Current Good
OZONE
Current Good
PM2.5
Wednesday Good
OZONE
Wednesday Good
PM2.5
Wednesday Good
CO
Thursday Good
OZONE
Thursday Good
PM2.5
Thursday Good
CO

Snow Depth

Station Depth Elevation
No new snow has been reported.

Earthquake Activity

City Distance Mag. Time & Date
No recent earthquake activity has been reported nearby.
Minimum magnitude displayed is 2.5.

Coastal Water Temperatures

Place Temperature
No Stations Reporting

Nearby Weather Stations